NOZ1972 ENGM-BIKF
Flight info
| Callsign | NOZ1972 |
|---|---|
| Flight time | N/A |
| Altitude | 36000 |
| Route | EVTOG DCT BARUD/M079F360 DCT ING DCT NASBU NASBU5N |
| Aircraft | B738/M-SDE2E3FGHIRWXY/LB1 |
Departure
| Time | 2026-05-05 09:19 |
|---|---|
| Airport | Oslo-Gardermoen International Airport (ENGM) |
Arrival
| Time | N/A |
|---|---|
| Airport | Keflavik International Airport (BIKF) |
| Time | Latitude | Longitude | Altitude | Speed | Heading |
|---|---|---|---|---|---|
| 2026-05-05 09:01 | 60.19396 | 11.08828 | 679 ft | 0 kts | 196° |
| 2026-05-05 09:10 | 60.19399 | 11.08830 | 679 ft | 3 kts | 195° |
| 2026-05-05 09:10 | 60.19422 | 11.08839 | 681 ft | 4 kts | 217° |
| 2026-05-05 09:11 | 60.19437 | 11.08872 | 679 ft | 4 kts | 247° |
| 2026-05-05 09:11 | 60.19439 | 11.08920 | 683 ft | 4 kts | 285° |
| 2026-05-05 09:11 | 60.19436 | 11.08943 | 679 ft | 1 kts | 286° |
| 2026-05-05 09:14 | 60.19448 | 11.08907 | 683 ft | 9 kts | 315° |
| 2026-05-05 09:14 | 60.19499 | 11.08780 | 679 ft | 14 kts | 287° |
| 2026-05-05 09:14 | 60.19518 | 11.08571 | 676 ft | 16 kts | 247° |
| 2026-05-05 09:15 | 60.19424 | 11.08474 | 676 ft | 15 kts | 197° |
| 2026-05-05 09:15 | 60.19319 | 11.08411 | 674 ft | 17 kts | 197° |
| 2026-05-05 09:15 | 60.19205 | 11.08342 | 673 ft | 18 kts | 197° |
| 2026-05-05 09:15 | 60.19090 | 11.08271 | 672 ft | 17 kts | 196° |
| 2026-05-05 09:16 | 60.18977 | 11.08216 | 672 ft | 16 kts | 193° |
| 2026-05-05 09:16 | 60.18870 | 11.08151 | 671 ft | 16 kts | 196° |
| 2026-05-05 09:16 | 60.18768 | 11.08092 | 670 ft | 15 kts | 196° |
| 2026-05-05 09:16 | 60.18668 | 11.08034 | 670 ft | 14 kts | 195° |
| 2026-05-05 09:17 | 60.18574 | 11.07979 | 669 ft | 14 kts | 196° |
| 2026-05-05 09:17 | 60.18544 | 11.07823 | 664 ft | 14 kts | 288° |
| 2026-05-05 09:17 | 60.18573 | 11.07629 | 663 ft | 14 kts | 285° |
| 2026-05-05 09:17 | 60.18621 | 11.07468 | 665 ft | 14 kts | 332° |
| 2026-05-05 09:18 | 60.18675 | 11.07471 | 666 ft | 0 kts | 15° |
| 2026-05-05 09:18 | 60.18726 | 11.07500 | 665 ft | 33 kts | 16° |
| 2026-05-05 09:18 | 60.19241 | 11.07797 | 671 ft | 118 kts | 15° |
| 2026-05-05 09:19 | 60.20277 | 11.08334 | 743 ft | 182 kts | 12° |
| 2026-05-05 09:19 | 60.21506 | 11.08933 | 1943 ft | 175 kts | 10° |
| 2026-05-05 09:19 | 60.22665 | 11.09578 | 3246 ft | 176 kts | 13° |
| 2026-05-05 09:19 | 60.23893 | 11.10314 | 3976 ft | 197 kts | 13° |
| 2026-05-05 09:20 | 60.25283 | 11.11149 | 4666 ft | 214 kts | 12° |
| 2026-05-05 09:20 | 60.26770 | 11.11264 | 5413 ft | 223 kts | 348° |
| 2026-05-05 09:20 | 60.28364 | 11.10744 | 6121 ft | 245 kts | 348° |
| 2026-05-05 09:20 | 60.30124 | 11.10178 | 6754 ft | 262 kts | 348° |
| 2026-05-05 09:21 | 60.31932 | 11.09608 | 7576 ft | 264 kts | 349° |
| 2026-05-05 09:21 | 60.33751 | 11.08974 | 8369 ft | 267 kts | 341° |
| 2026-05-05 09:21 | 60.35365 | 11.07179 | 9171 ft | 266 kts | 316° |
| 2026-05-05 09:21 | 60.36638 | 11.04472 | 10010 ft | 268 kts | 310° |
| 2026-05-05 09:22 | 60.37897 | 11.01575 | 10419 ft | 285 kts | 310° |
| 2026-05-05 09:22 | 60.39258 | 10.98412 | 10599 ft | 310 kts | 310° |
| 2026-05-05 09:22 | 60.40729 | 10.95015 | 10807 ft | 331 kts | 310° |
| 2026-05-05 09:22 | 60.42285 | 10.91454 | 11344 ft | 340 kts | 310° |
| 2026-05-05 09:23 | 60.43863 | 10.87848 | 12077 ft | 344 kts | 310° |
| 2026-05-05 09:23 | 60.45418 | 10.84225 | 12872 ft | 345 kts | 306° |
| 2026-05-05 09:23 | 60.46490 | 10.79841 | 13635 ft | 347 kts | 285° |
| 2026-05-05 09:23 | 60.46752 | 10.75041 | 14423 ft | 347 kts | 268° |
| 2026-05-05 09:24 | 60.46280 | 10.70278 | 15311 ft | 346 kts | 253° |
| 2026-05-05 09:24 | 60.45457 | 10.65700 | 16131 ft | 346 kts | 251° |
| 2026-05-05 09:24 | 60.44586 | 10.61167 | 16924 ft | 345 kts | 251° |
| 2026-05-05 09:24 | 60.43712 | 10.56643 | 17732 ft | 344 kts | 251° |
| 2026-05-05 09:25 | 60.42853 | 10.52129 | 18460 ft | 343 kts | 252° |
| 2026-05-05 09:25 | 60.42011 | 10.47647 | 19168 ft | 340 kts | 252° |
| 2026-05-05 09:25 | 60.41176 | 10.43184 | 19898 ft | 337 kts | 252° |
| 2026-05-05 09:25 | 60.40348 | 10.38748 | 20595 ft | 335 kts | 252° |
| 2026-05-05 09:26 | 60.39527 | 10.34351 | 21222 ft | 333 kts | 252° |
| 2026-05-05 09:26 | 60.38968 | 10.29836 | 21768 ft | 332 kts | 263° |
| 2026-05-05 09:26 | 60.38889 | 10.25169 | 22351 ft | 333 kts | 272° |
| 2026-05-05 09:26 | 60.39356 | 10.20551 | 22909 ft | 341 kts | 285° |
| 2026-05-05 09:27 | 60.40519 | 10.16350 | 23451 ft | 355 kts | 297° |
| 2026-05-05 09:27 | 60.42211 | 10.12584 | 23821 ft | 370 kts | 307° |
| 2026-05-05 09:27 | 60.44300 | 10.09370 | 24157 ft | 389 kts | 317° |
| 2026-05-05 09:27 | 60.46883 | 10.07204 | 24480 ft | 418 kts | 333° |
| 2026-05-05 09:28 | 60.49778 | 10.05989 | 24856 ft | 427 kts | 337° |
| 2026-05-05 09:28 | 60.52729 | 10.04985 | 25216 ft | 431 kts | 338° |
| 2026-05-05 09:28 | 60.55694 | 10.03939 | 25551 ft | 433 kts | 337° |
| 2026-05-05 09:28 | 60.58674 | 10.02807 | 25910 ft | 435 kts | 337° |
| 2026-05-05 09:29 | 60.61618 | 10.01646 | 26205 ft | 438 kts | 337° |
| 2026-05-05 09:29 | 60.64620 | 10.00456 | 26523 ft | 441 kts | 338° |
| 2026-05-05 09:29 | 60.67641 | 9.99261 | 26852 ft | 443 kts | 338° |
| 2026-05-05 09:29 | 60.70682 | 9.98062 | 27159 ft | 446 kts | 338° |
| 2026-05-05 09:30 | 60.73748 | 9.96851 | 27462 ft | 448 kts | 338° |
| 2026-05-05 09:30 | 60.76814 | 9.95588 | 27715 ft | 447 kts | 334° |
| 2026-05-05 09:30 | 60.79592 | 9.93162 | 27932 ft | 425 kts | 317° |
| 2026-05-05 09:30 | 60.81840 | 9.89415 | 28287 ft | 411 kts | 306° |
| 2026-05-05 09:31 | 60.83571 | 9.84970 | 28644 ft | 399 kts | 295° |
| 2026-05-05 09:31 | 60.84823 | 9.79885 | 29009 ft | 393 kts | 289° |
| 2026-05-05 09:31 | 60.85914 | 9.74809 | 29382 ft | 393 kts | 288° |
| 2026-05-05 09:31 | 60.86992 | 9.69634 | 29766 ft | 393 kts | 288° |
| 2026-05-05 09:32 | 60.88059 | 9.64480 | 30104 ft | 392 kts | 288° |
| 2026-05-05 09:32 | 60.89133 | 9.59311 | 30323 ft | 394 kts | 288° |
| 2026-05-05 09:32 | 60.90217 | 9.54123 | 30512 ft | 396 kts | 288° |
| 2026-05-05 09:32 | 60.91310 | 9.48913 | 30717 ft | 398 kts | 289° |
| 2026-05-05 09:33 | 60.92413 | 9.43673 | 30978 ft | 399 kts | 289° |
| 2026-05-05 09:33 | 60.93518 | 9.38431 | 31254 ft | 400 kts | 289° |
| 2026-05-05 09:33 | 60.94615 | 9.33216 | 31480 ft | 402 kts | 289° |
| 2026-05-05 09:33 | 60.95725 | 9.27934 | 31705 ft | 403 kts | 289° |
| 2026-05-05 09:34 | 60.96839 | 9.22623 | 31923 ft | 404 kts | 289° |
| 2026-05-05 09:34 | 60.97954 | 9.17297 | 32163 ft | 405 kts | 289° |
| 2026-05-05 09:34 | 60.99067 | 9.11963 | 32409 ft | 406 kts | 289° |
| 2026-05-05 09:34 | 61.00180 | 9.06618 | 32653 ft | 406 kts | 289° |
| 2026-05-05 09:35 | 61.01290 | 9.01268 | 32889 ft | 407 kts | 289° |
| 2026-05-05 09:35 | 61.03507 | 8.90549 | 33364 ft | 408 kts | 289° |
| 2026-05-05 09:35 | 61.04617 | 8.85155 | 33600 ft | 408 kts | 289° |
| 2026-05-05 09:36 | 61.05725 | 8.79764 | 33820 ft | 409 kts | 289° |
| 2026-05-05 09:36 | 61.06834 | 8.74348 | 34024 ft | 409 kts | 289° |
| 2026-05-05 09:36 | 61.07942 | 8.68927 | 34199 ft | 410 kts | 289° |
| 2026-05-05 09:36 | 61.09049 | 8.63493 | 34388 ft | 410 kts | 289° |
| 2026-05-05 09:37 | 61.10152 | 8.58064 | 34593 ft | 410 kts | 289° |
| 2026-05-05 09:37 | 61.11252 | 8.52638 | 34763 ft | 410 kts | 289° |
| 2026-05-05 09:37 | 61.12355 | 8.47182 | 34925 ft | 411 kts | 289° |
| 2026-05-05 09:37 | 61.13455 | 8.41722 | 35046 ft | 412 kts | 289° |
| 2026-05-05 09:38 | 61.14559 | 8.36227 | 35171 ft | 414 kts | 289° |
| 2026-05-05 09:38 | 61.15651 | 8.30779 | 35328 ft | 415 kts | 289° |
| 2026-05-05 09:38 | 61.16758 | 8.25244 | 35486 ft | 415 kts | 289° |
| 2026-05-05 09:38 | 61.17860 | 8.19719 | 35631 ft | 416 kts | 289° |
| 2026-05-05 09:39 | 61.18965 | 8.14161 | 35767 ft | 417 kts | 289° |
| 2026-05-05 09:39 | 61.20070 | 8.08591 | 35884 ft | 417 kts | 289° |
| 2026-05-05 09:39 | 61.22277 | 7.97412 | 35900 ft | 420 kts | 289° |
| 2026-05-05 09:40 | 61.24484 | 7.86176 | 35912 ft | 420 kts | 289° |
| 2026-05-05 09:40 | 61.26684 | 7.74913 | 35899 ft | 421 kts | 289° |
| 2026-05-05 09:41 | 61.28862 | 7.63697 | 35888 ft | 421 kts | 289° |
| 2026-05-05 09:41 | 61.31046 | 7.52384 | 35886 ft | 421 kts | 289° |
| 2026-05-05 09:42 | 61.33223 | 7.41039 | 35895 ft | 424 kts | 289° |
| 2026-05-05 09:42 | 61.35423 | 7.29507 | 35894 ft | 429 kts | 289° |
| 2026-05-05 09:43 | 61.37618 | 7.17941 | 35890 ft | 433 kts | 289° |
| 2026-05-05 09:43 | 61.39831 | 7.06209 | 35894 ft | 436 kts | 289° |
| 2026-05-05 09:44 | 61.42044 | 6.94410 | 35904 ft | 437 kts | 289° |
| 2026-05-05 09:44 | 61.44257 | 6.82539 | 35909 ft | 438 kts | 289° |
| 2026-05-05 09:45 | 61.46465 | 6.70618 | 35906 ft | 439 kts | 289° |
| 2026-05-05 09:45 | 61.48653 | 6.58738 | 35916 ft | 440 kts | 289° |
| 2026-05-05 09:46 | 61.50841 | 6.46775 | 35933 ft | 440 kts | 289° |
| 2026-05-05 09:46 | 61.53026 | 6.34761 | 35923 ft | 441 kts | 289° |
| 2026-05-05 09:47 | 61.55185 | 6.22811 | 35922 ft | 441 kts | 289° |
| 2026-05-05 09:47 | 61.57347 | 6.10771 | 35937 ft | 440 kts | 289° |
| 2026-05-05 09:48 | 61.59500 | 5.98711 | 35933 ft | 441 kts | 288° |
| 2026-05-05 09:48 | 61.61646 | 5.86606 | 35921 ft | 441 kts | 289° |
| 2026-05-05 09:49 | 61.63768 | 5.74561 | 35929 ft | 441 kts | 288° |
| 2026-05-05 09:49 | 61.65532 | 5.64490 | 35938 ft | 441 kts | 288° |
| 2026-05-05 09:50 | 61.66614 | 5.58284 | 35930 ft | 442 kts | 288° |
| 2026-05-05 09:50 | 61.68726 | 5.46119 | 35943 ft | 442 kts | 288° |
| 2026-05-05 09:51 | 61.70814 | 5.34012 | 35941 ft | 442 kts | 288° |
| 2026-05-05 09:51 | 61.72908 | 5.21787 | 35939 ft | 443 kts | 288° |
| 2026-05-05 09:52 | 61.74991 | 5.09548 | 35931 ft | 443 kts | 288° |
| 2026-05-05 09:52 | 61.77065 | 4.97286 | 35935 ft | 443 kts | 288° |
| 2026-05-05 09:53 | 61.79126 | 4.85012 | 35928 ft | 443 kts | 288° |
| 2026-05-05 09:53 | 61.81176 | 4.72726 | 35924 ft | 443 kts | 288° |
| 2026-05-05 09:54 | 61.83218 | 4.60407 | 35916 ft | 443 kts | 288° |
| 2026-05-05 09:54 | 61.85238 | 4.48136 | 35911 ft | 443 kts | 288° |
| 2026-05-05 09:55 | 61.87260 | 4.35769 | 35908 ft | 443 kts | 288° |
| 2026-05-05 09:55 | 61.89257 | 4.23472 | 35910 ft | 443 kts | 288° |
| 2026-05-05 09:56 | 61.91254 | 4.11090 | 35903 ft | 444 kts | 288° |
| 2026-05-05 09:56 | 61.93241 | 3.98684 | 35906 ft | 443 kts | 288° |
| 2026-05-05 09:57 | 61.95217 | 3.86262 | 35895 ft | 443 kts | 288° |
| 2026-05-05 09:57 | 61.97183 | 3.73817 | 35902 ft | 444 kts | 287° |
| 2026-05-05 09:58 | 61.99135 | 3.61375 | 35896 ft | 444 kts | 287° |
| 2026-05-05 09:58 | 62.01066 | 3.48976 | 35900 ft | 444 kts | 287° |
| 2026-05-05 09:59 | 62.02998 | 3.36487 | 35904 ft | 444 kts | 287° |
| 2026-05-05 09:59 | 62.04918 | 3.23987 | 35904 ft | 444 kts | 287° |
| 2026-05-05 10:00 | 62.06827 | 3.11465 | 35905 ft | 444 kts | 287° |
| 2026-05-05 10:00 | 62.08727 | 2.98917 | 35905 ft | 444 kts | 287° |
| 2026-05-05 10:01 | 62.10299 | 2.88463 | 35907 ft | 444 kts | 287° |
| 2026-05-05 10:01 | 62.12483 | 2.73831 | 35903 ft | 444 kts | 287° |
| 2026-05-05 10:02 | 62.14034 | 2.63363 | 35904 ft | 444 kts | 287° |
| 2026-05-05 10:02 | 62.15888 | 2.50769 | 35911 ft | 444 kts | 287° |
| 2026-05-05 10:03 | 62.17735 | 2.38131 | 35915 ft | 444 kts | 287° |
| 2026-05-05 10:03 | 62.19566 | 2.25502 | 35907 ft | 445 kts | 287° |
| 2026-05-05 10:04 | 62.21393 | 2.12812 | 35910 ft | 445 kts | 287° |
| 2026-05-05 10:04 | 62.23194 | 2.00207 | 35913 ft | 445 kts | 287° |
| 2026-05-05 10:05 | 62.24997 | 1.87489 | 35920 ft | 445 kts | 286° |
| 2026-05-05 10:05 | 62.26786 | 1.74776 | 35920 ft | 445 kts | 286° |
| 2026-05-05 10:06 | 62.28554 | 1.62108 | 35924 ft | 445 kts | 286° |
| 2026-05-05 10:06 | 62.30323 | 1.49340 | 35924 ft | 445 kts | 286° |
| 2026-05-05 10:07 | 62.32078 | 1.36578 | 35928 ft | 445 kts | 286° |
| 2026-05-05 10:07 | 62.33812 | 1.23864 | 35931 ft | 445 kts | 286° |
| 2026-05-05 10:08 | 62.35542 | 1.11077 | 35931 ft | 445 kts | 286° |
| 2026-05-05 10:08 | 62.37262 | 0.98261 | 35936 ft | 445 kts | 286° |
| 2026-05-05 10:09 | 62.38968 | 0.85451 | 35935 ft | 445 kts | 286° |
| 2026-05-05 10:09 | 62.40654 | 0.72690 | 35940 ft | 445 kts | 285° |
| 2026-05-05 10:10 | 62.42338 | 0.59843 | 35942 ft | 444 kts | 285° |
| 2026-05-05 10:10 | 62.44010 | 0.46973 | 35944 ft | 444 kts | 285° |
| 2026-05-05 10:11 | 62.45668 | 0.34110 | 35947 ft | 444 kts | 285° |
| 2026-05-05 10:11 | 62.47316 | 0.21225 | 35953 ft | 444 kts | 285° |
| 2026-05-05 10:12 | 62.48942 | 0.08413 | 35954 ft | 444 kts | 285° |
| 2026-05-05 10:12 | 62.50591 | -0.04515 | 35957 ft | 444 kts | 286° |
| 2026-05-05 10:13 | 62.52392 | -0.17291 | 35957 ft | 444 kts | 287° |
| 2026-05-05 10:13 | 62.54223 | -0.30011 | 35959 ft | 444 kts | 287° |
| 2026-05-05 10:14 | 62.56039 | -0.42829 | 35962 ft | 444 kts | 287° |
| 2026-05-05 10:14 | 62.57827 | -0.55665 | 35966 ft | 445 kts | 287° |
| 2026-05-05 10:15 | 62.59601 | -0.68549 | 35967 ft | 445 kts | 287° |
| 2026-05-05 10:15 | 62.61351 | -0.81367 | 35969 ft | 445 kts | 287° |
| 2026-05-05 10:16 | 62.63097 | -0.94245 | 35968 ft | 445 kts | 286° |
| 2026-05-05 10:16 | 62.64835 | -1.07176 | 35973 ft | 445 kts | 286° |
| 2026-05-05 10:17 | 62.66557 | -1.20087 | 35974 ft | 445 kts | 286° |
| 2026-05-05 10:17 | 62.68261 | -1.32959 | 35979 ft | 445 kts | 286° |
| 2026-05-05 10:18 | 62.69961 | -1.45912 | 35982 ft | 445 kts | 286° |
| 2026-05-05 10:18 | 62.71650 | -1.58887 | 35985 ft | 445 kts | 286° |
| 2026-05-05 10:19 | 62.73327 | -1.71878 | 35989 ft | 445 kts | 286° |
| 2026-05-05 10:19 | 62.74992 | -1.84879 | 35992 ft | 445 kts | 286° |
| 2026-05-05 10:20 | 62.76644 | -1.97894 | 35995 ft | 445 kts | 285° |
| 2026-05-05 10:20 | 62.78276 | -2.10852 | 35992 ft | 445 kts | 285° |
| 2026-05-05 10:21 | 62.79903 | -2.23885 | 35996 ft | 445 kts | 285° |
| 2026-05-05 10:21 | 62.81520 | -2.36953 | 36005 ft | 444 kts | 285° |
| 2026-05-05 10:22 | 62.83117 | -2.49962 | 36005 ft | 444 kts | 285° |
| 2026-05-05 10:22 | 62.84707 | -2.63034 | 36009 ft | 444 kts | 285° |
| 2026-05-05 10:23 | 62.86286 | -2.76126 | 36010 ft | 444 kts | 285° |
| 2026-05-05 10:23 | 62.87853 | -2.89234 | 36013 ft | 444 kts | 285° |
| 2026-05-05 10:24 | 62.89407 | -3.02350 | 36013 ft | 444 kts | 285° |
| 2026-05-05 10:24 | 62.90889 | -3.14962 | 36015 ft | 444 kts | 285° |
| 2026-05-05 10:25 | 62.92408 | -3.28012 | 36020 ft | 444 kts | 285° |
| 2026-05-05 10:25 | 62.93919 | -3.41100 | 36021 ft | 444 kts | 285° |
| 2026-05-05 10:26 | 62.95424 | -3.54264 | 36023 ft | 444 kts | 284° |
| 2026-05-05 10:26 | 62.96921 | -3.67476 | 36022 ft | 444 kts | 284° |
| 2026-05-05 10:27 | 62.98404 | -3.80689 | 36034 ft | 444 kts | 284° |
| 2026-05-05 10:27 | 62.99863 | -3.93807 | 36033 ft | 444 kts | 284° |
| 2026-05-05 10:28 | 63.01319 | -4.07025 | 36038 ft | 444 kts | 284° |
| 2026-05-05 10:28 | 63.02763 | -4.20260 | 36041 ft | 444 kts | 284° |
| 2026-05-05 10:29 | 63.04194 | -4.33497 | 36043 ft | 444 kts | 284° |
| 2026-05-05 10:29 | 63.05603 | -4.46659 | 36045 ft | 444 kts | 284° |
| 2026-05-05 10:30 | 63.07009 | -4.59927 | 36048 ft | 443 kts | 284° |
| 2026-05-05 10:30 | 63.08399 | -4.73171 | 36052 ft | 443 kts | 284° |
| 2026-05-05 10:31 | 63.09780 | -4.86456 | 36054 ft | 443 kts | 284° |
| 2026-05-05 10:31 | 63.11147 | -4.99742 | 36056 ft | 443 kts | 283° |
| 2026-05-05 10:32 | 63.12493 | -5.12951 | 36058 ft | 443 kts | 283° |
| 2026-05-05 10:32 | 63.13835 | -5.26257 | 36061 ft | 443 kts | 283° |
| 2026-05-05 10:33 | 63.15165 | -5.39576 | 36062 ft | 443 kts | 283° |
| 2026-05-05 10:33 | 63.16481 | -5.52896 | 36069 ft | 443 kts | 283° |
| 2026-05-05 10:34 | 63.17786 | -5.66247 | 36069 ft | 443 kts | 283° |
| 2026-05-05 10:34 | 63.19079 | -5.79614 | 36074 ft | 443 kts | 283° |
| 2026-05-05 10:35 | 63.20352 | -5.92914 | 36075 ft | 443 kts | 283° |
| 2026-05-05 10:35 | 63.21621 | -6.06316 | 36078 ft | 443 kts | 283° |
| 2026-05-05 10:36 | 63.22875 | -6.19699 | 36081 ft | 443 kts | 283° |
| 2026-05-05 10:36 | 63.24116 | -6.33089 | 36085 ft | 443 kts | 283° |
| 2026-05-05 10:37 | 63.25344 | -6.46492 | 36086 ft | 443 kts | 282° |
| 2026-05-05 10:37 | 63.26560 | -6.59906 | 36086 ft | 443 kts | 282° |
| 2026-05-05 10:38 | 63.27755 | -6.73251 | 36089 ft | 443 kts | 282° |
| 2026-05-05 10:38 | 63.28953 | -6.86772 | 36095 ft | 443 kts | 282° |
| 2026-05-05 10:39 | 63.30123 | -7.00130 | 36096 ft | 443 kts | 282° |
| 2026-05-05 10:39 | 63.31286 | -7.13560 | 36099 ft | 443 kts | 282° |
| 2026-05-05 10:40 | 63.32437 | -7.27013 | 36103 ft | 443 kts | 282° |
| 2026-05-05 10:40 | 63.33577 | -7.40500 | 36111 ft | 443 kts | 282° |
| 2026-05-05 10:41 | 63.34704 | -7.53989 | 36108 ft | 443 kts | 282° |
| 2026-05-05 10:41 | 63.35818 | -7.67487 | 36117 ft | 443 kts | 282° |
| 2026-05-05 10:42 | 63.37458 | -7.87669 | 36116 ft | 443 kts | 281° |
| 2026-05-05 10:43 | 63.38539 | -8.01180 | 36122 ft | 443 kts | 281° |
| 2026-05-05 10:43 | 63.39608 | -8.14710 | 36119 ft | 443 kts | 281° |
| 2026-05-05 10:44 | 63.40666 | -8.28272 | 36125 ft | 443 kts | 281° |
| 2026-05-05 10:44 | 63.41703 | -8.41737 | 36129 ft | 443 kts | 281° |
| 2026-05-05 10:45 | 63.42733 | -8.55293 | 36130 ft | 443 kts | 281° |
| 2026-05-05 10:45 | 63.43751 | -8.68861 | 36134 ft | 442 kts | 281° |
| 2026-05-05 10:46 | 63.44757 | -8.82452 | 36135 ft | 442 kts | 281° |
| 2026-05-05 10:46 | 63.45748 | -8.96026 | 36138 ft | 442 kts | 281° |
| 2026-05-05 10:47 | 63.46721 | -9.09531 | 36141 ft | 442 kts | 281° |
| 2026-05-05 10:47 | 63.47688 | -9.23155 | 36146 ft | 442 kts | 280° |
| 2026-05-05 10:48 | 63.48641 | -9.36763 | 36148 ft | 442 kts | 280° |
| 2026-05-05 10:48 | 63.49576 | -9.50304 | 36149 ft | 442 kts | 280° |
| 2026-05-05 10:49 | 63.50503 | -9.63930 | 36152 ft | 442 kts | 280° |
| 2026-05-05 10:49 | 63.51415 | -9.77536 | 36158 ft | 442 kts | 280° |
| 2026-05-05 10:50 | 63.52315 | -9.91159 | 36162 ft | 442 kts | 280° |
| 2026-05-05 10:50 | 63.53202 | -10.04795 | 36162 ft | 442 kts | 279° |
| 2026-05-05 10:51 | 63.54076 | -10.18435 | 36165 ft | 442 kts | 279° |
| 2026-05-05 10:51 | 63.54931 | -10.31983 | 36171 ft | 442 kts | 279° |
| 2026-05-05 10:52 | 63.55779 | -10.45637 | 36174 ft | 442 kts | 279° |
| 2026-05-05 10:52 | 63.56475 | -10.57014 | 36176 ft | 441 kts | 279° |
| 2026-05-05 10:53 | 63.57299 | -10.70680 | 36181 ft | 441 kts | 279° |
| 2026-05-05 10:53 | 63.58240 | -10.86559 | 36184 ft | 441 kts | 279° |
| 2026-05-05 10:54 | 63.58904 | -10.97962 | 36186 ft | 441 kts | 279° |
| 2026-05-05 10:54 | 63.59688 | -11.11641 | 36190 ft | 441 kts | 279° |
| 2026-05-05 10:55 | 63.60461 | -11.25343 | 36192 ft | 441 kts | 279° |
| 2026-05-05 10:55 | 63.61215 | -11.38954 | 36197 ft | 441 kts | 279° |
| 2026-05-05 10:56 | 63.61960 | -11.52655 | 36196 ft | 441 kts | 278° |
| 2026-05-05 10:56 | 63.62694 | -11.66392 | 36199 ft | 441 kts | 278° |
| 2026-05-05 10:57 | 63.63414 | -11.80109 | 36200 ft | 441 kts | 278° |
| 2026-05-05 10:57 | 63.64115 | -11.93737 | 36208 ft | 441 kts | 278° |
| 2026-05-05 10:58 | 63.64809 | -12.07477 | 36205 ft | 441 kts | 278° |
| 2026-05-05 10:58 | 63.65489 | -12.21206 | 36207 ft | 441 kts | 278° |
| 2026-05-05 10:59 | 63.66156 | -12.34960 | 36211 ft | 441 kts | 278° |
| 2026-05-05 10:59 | 63.66806 | -12.48609 | 36223 ft | 441 kts | 278° |
| 2026-05-05 11:00 | 63.67446 | -12.62359 | 36213 ft | 441 kts | 278° |
| 2026-05-05 11:00 | 63.68074 | -12.76122 | 36216 ft | 441 kts | 278° |
| 2026-05-05 11:01 | 63.68690 | -12.89912 | 36226 ft | 441 kts | 277° |
| 2026-05-05 11:01 | 63.69290 | -13.03658 | 36217 ft | 441 kts | 277° |
| 2026-05-05 11:02 | 63.69874 | -13.17330 | 36223 ft | 441 kts | 277° |
| 2026-05-05 11:02 | 63.70449 | -13.31092 | 36221 ft | 441 kts | 277° |
| 2026-05-05 11:03 | 63.71010 | -13.44866 | 36232 ft | 440 kts | 277° |
| 2026-05-05 11:03 | 63.71558 | -13.58630 | 36236 ft | 441 kts | 277° |
| 2026-05-05 11:04 | 63.72094 | -13.72430 | 36231 ft | 441 kts | 277° |
| 2026-05-05 11:04 | 63.72613 | -13.86135 | 36234 ft | 441 kts | 277° |
| 2026-05-05 11:05 | 63.73122 | -13.99939 | 36233 ft | 441 kts | 277° |
| 2026-05-05 11:05 | 63.73618 | -14.13753 | 36234 ft | 441 kts | 277° |
| 2026-05-05 11:06 | 63.74100 | -14.27536 | 36236 ft | 441 kts | 276° |
| 2026-05-05 11:06 | 63.74570 | -14.41353 | 36239 ft | 441 kts | 276° |
| 2026-05-05 11:07 | 63.75023 | -14.55092 | 36240 ft | 441 kts | 276° |
| 2026-05-05 11:07 | 63.75466 | -14.68896 | 36239 ft | 441 kts | 276° |
| 2026-05-05 11:08 | 63.75895 | -14.82700 | 36242 ft | 441 kts | 276° |
| 2026-05-05 11:08 | 63.76312 | -14.96521 | 36246 ft | 441 kts | 276° |
| 2026-05-05 11:09 | 63.76715 | -15.10354 | 36243 ft | 441 kts | 276° |
| 2026-05-05 11:09 | 63.77103 | -15.24095 | 36245 ft | 441 kts | 276° |
| 2026-05-05 11:10 | 63.77480 | -15.37927 | 36242 ft | 440 kts | 276° |
| 2026-05-05 11:10 | 63.77843 | -15.51771 | 36244 ft | 440 kts | 276° |
| 2026-05-05 11:11 | 63.78194 | -15.65621 | 36244 ft | 440 kts | 275° |
| 2026-05-05 11:11 | 63.78531 | -15.79463 | 36242 ft | 440 kts | 275° |
| 2026-05-05 11:12 | 63.78855 | -15.93288 | 36242 ft | 440 kts | 275° |
| 2026-05-05 11:12 | 63.79163 | -16.07018 | 36243 ft | 440 kts | 275° |
| 2026-05-05 11:13 | 63.79460 | -16.20852 | 36244 ft | 440 kts | 275° |
| 2026-05-05 11:13 | 63.79744 | -16.34698 | 36247 ft | 440 kts | 275° |
| 2026-05-05 11:14 | 63.80017 | -16.48526 | 36243 ft | 440 kts | 275° |
| 2026-05-05 11:14 | 63.80276 | -16.62352 | 36246 ft | 439 kts | 275° |
| 2026-05-05 11:15 | 63.80847 | -16.76101 | 36246 ft | 438 kts | 279° |
| 2026-05-05 11:15 | 63.81575 | -16.89795 | 36252 ft | 438 kts | 279° |
| 2026-05-05 11:16 | 63.82283 | -17.03411 | 36244 ft | 438 kts | 278° |
| 2026-05-05 11:16 | 63.82962 | -17.17121 | 36250 ft | 438 kts | 278° |
| 2026-05-05 11:17 | 63.83616 | -17.30831 | 36255 ft | 438 kts | 278° |
| 2026-05-05 11:17 | 63.84255 | -17.44568 | 36252 ft | 438 kts | 278° |
| 2026-05-05 11:18 | 63.84878 | -17.58213 | 36259 ft | 438 kts | 278° |
| 2026-05-05 11:18 | 63.85493 | -17.71974 | 36260 ft | 438 kts | 278° |
| 2026-05-05 11:19 | 63.86095 | -17.85726 | 36259 ft | 438 kts | 278° |
| 2026-05-05 11:19 | 63.86682 | -17.99473 | 36251 ft | 435 kts | 278° |
| 2026-05-05 11:19 | 63.86965 | -18.06229 | 35972 ft | 429 kts | 278° |
| 2026-05-05 11:20 | 63.87240 | -18.12849 | 35469 ft | 424 kts | 278° |
| 2026-05-05 11:20 | 63.87514 | -18.19514 | 34851 ft | 424 kts | 277° |
| 2026-05-05 11:20 | 63.87786 | -18.26218 | 34409 ft | 420 kts | 277° |
| 2026-05-05 11:20 | 63.88047 | -18.32708 | 33913 ft | 416 kts | 277° |
| 2026-05-05 11:21 | 63.88305 | -18.39211 | 33416 ft | 412 kts | 277° |
| 2026-05-05 11:21 | 63.88557 | -18.45641 | 32973 ft | 406 kts | 277° |
| 2026-05-05 11:21 | 63.88802 | -18.51978 | 32537 ft | 401 kts | 277° |
| 2026-05-05 11:21 | 63.89043 | -18.58247 | 32091 ft | 396 kts | 277° |
| 2026-05-05 11:22 | 63.89278 | -18.64449 | 31687 ft | 391 kts | 277° |
| 2026-05-05 11:22 | 63.89507 | -18.70557 | 31258 ft | 386 kts | 277° |
| 2026-05-05 11:22 | 63.89731 | -18.76604 | 30841 ft | 381 kts | 278° |
| 2026-05-05 11:22 | 63.89950 | -18.82575 | 30441 ft | 377 kts | 278° |
| 2026-05-05 11:23 | 63.90163 | -18.88468 | 29970 ft | 372 kts | 278° |
| 2026-05-05 11:23 | 63.90371 | -18.94275 | 29549 ft | 365 kts | 277° |
| 2026-05-05 11:23 | 63.90571 | -18.99918 | 29159 ft | 359 kts | 278° |
| 2026-05-05 11:23 | 63.90768 | -19.05529 | 28743 ft | 354 kts | 278° |
| 2026-05-05 11:24 | 63.90960 | -19.11066 | 28339 ft | 348 kts | 278° |
| 2026-05-05 11:24 | 63.91146 | -19.16508 | 27948 ft | 343 kts | 278° |
| 2026-05-05 11:24 | 63.91328 | -19.21875 | 27564 ft | 337 kts | 278° |